createdAt,value
2023-05-02T00:01:49.050Z,100870.00
2023-05-02T00:06:53.984Z,100875.66
2023-05-02T00:11:56.818Z,100883.97
2023-05-02T00:16:59.673Z,100891.66
2023-05-02T00:22:02.468Z,100892.94
2023-05-02T00:27:06.542Z,100894.00
2023-05-02T00:32:09.439Z,100905.06
2023-05-02T00:37:13.540Z,100914.69
2023-05-02T00:42:16.389Z,100917.88
2023-05-02T00:47:19.219Z,100928.91
2023-05-02T00:52:22.067Z,100939.84
2023-05-02T00:57:25.934Z,100929.56
2023-05-02T01:02:33.248Z,100932.09
2023-05-02T01:08:06.246Z,100940.81
2023-05-02T01:13:13.084Z,100946.72
2023-05-02T01:18:18.845Z,100944.50
2023-05-02T01:23:31.192Z,100952.81
2023-05-02T01:28:55.417Z,100961.09
2023-05-02T01:33:59.640Z,100967.13
2023-05-02T01:39:03.357Z,100960.50
2023-05-02T01:44:06.883Z,100971.19
2023-05-02T01:49:09.935Z,100980.31
2023-05-02T01:54:14.063Z,100983.59
2023-05-02T01:59:20.644Z,100982.03
2023-05-02T02:04:24.534Z,100985.75
2023-05-02T02:09:27.398Z,100992.03
2023-05-02T02:14:35.099Z,100993.69
2023-05-02T02:19:39.061Z,100998.88
2023-05-02T02:24:44.396Z,101008.81
2023-05-02T02:29:47.195Z,101020.66
2023-05-02T02:34:50.080Z,101018.53
2023-05-02T02:40:14.491Z,101013.44
2023-05-02T02:46:00.076Z,101010.81
2023-05-02T02:51:09.799Z,101007.75
2023-05-02T02:56:28.540Z,101014.72
2023-05-02T03:01:32.831Z,101014.22
2023-05-02T03:06:35.893Z,101022.50
2023-05-02T03:11:39.798Z,101039.31
2023-05-02T03:16:43.003Z,101026.56
2023-05-02T03:21:50.906Z,101025.72
2023-05-02T03:26:59.936Z,101036.75
2023-05-02T03:32:09.443Z,101039.00
2023-05-02T03:37:13.852Z,101037.72
2023-05-02T03:42:16.841Z,101043.66
2023-05-02T03:47:20.074Z,101053.03
2023-05-02T03:52:23.596Z,101058.16
2023-05-02T03:57:32.412Z,101054.53
2023-05-02T04:02:36.090Z,101045.03
2023-05-02T04:07:39.561Z,101047.53
2023-05-02T04:12:43.780Z,101053.97
2023-05-02T04:17:48.132Z,101040.94
2023-05-02T04:22:51.700Z,101036.00
2023-05-02T04:27:54.618Z,101025.34
2023-05-02T04:32:59.562Z,101046.22
2023-05-02T04:38:08.021Z,101042.91
2023-05-02T04:43:11.730Z,101041.59
2023-05-02T04:48:25.933Z,101040.28
2023-05-02T04:53:29.173Z,101040.03
2023-05-02T04:58:33.264Z,101036.28
2023-05-02T05:03:39.431Z,101035.59
2023-05-02T05:08:46.139Z,101027.88
2023-05-02T05:13:50.688Z,101028.94
2023-05-02T05:18:54.366Z,101040.06
2023-05-02T05:23:57.352Z,101043.75
2023-05-02T05:29:03.775Z,101049.06
2023-05-02T05:34:14.781Z,101046.22
2023-05-02T05:39:18.974Z,101047.16
2023-05-02T05:44:25.893Z,101048.03
2023-05-02T05:49:29.088Z,101035.03
2023-05-02T05:54:31.962Z,101030.25
2023-05-02T05:59:36.887Z,101049.63
2023-05-02T06:04:41.632Z,101060.78
2023-05-02T06:09:45.019Z,101054.88
2023-05-02T06:14:48.936Z,101044.19
2023-05-02T06:19:51.892Z,101063.16
2023-05-02T06:24:54.720Z,101057.03
2023-05-02T06:29:57.956Z,101056.28
2023-05-02T06:35:01.183Z,101048.78
2023-05-02T06:40:06.629Z,101046.66
2023-05-02T06:45:09.668Z,101046.91
2023-05-02T06:50:12.460Z,101052.69
2023-05-02T06:55:15.691Z,101047.63
2023-05-02T07:00:19.846Z,101050.88
2023-05-02T07:05:22.744Z,101043.66
2023-05-02T07:10:25.615Z,101036.78
2023-05-02T07:15:28.677Z,101034.22
2023-05-02T07:20:31.540Z,101052.75
2023-05-02T07:25:34.414Z,101041.81
2023-05-02T07:30:37.332Z,101045.88
2023-05-02T07:35:40.579Z,101054.34
2023-05-02T07:40:43.912Z,101038.69
2023-05-02T07:45:46.734Z,101060.53
2023-05-02T07:50:49.620Z,101048.97
2023-05-02T07:55:52.360Z,101055.72
2023-05-02T08:00:55.165Z,101059.03
2023-05-02T08:05:58.319Z,101053.09
2023-05-02T08:11:01.228Z,101065.97
2023-05-02T08:16:04.590Z,101074.38
2023-05-02T08:21:07.499Z,101081.41
2023-05-02T08:26:10.320Z,101071.75
2023-05-02T08:31:13.201Z,101072.38
2023-05-02T08:36:18.099Z,101079.38
2023-05-02T08:41:20.974Z,101086.78
2023-05-02T08:46:29.212Z,101105.31
2023-05-02T08:51:33.141Z,101101.50
2023-05-02T08:56:36.246Z,101104.84
2023-05-02T09:01:42.147Z,101102.88
2023-05-02T09:06:45.527Z,101120.44
2023-05-02T09:11:48.425Z,101121.59
2023-05-02T09:16:51.357Z,101124.31
2023-05-02T09:22:00.692Z,101126.66
2023-05-02T09:27:06.457Z,101127.19
2023-05-02T09:32:09.481Z,101143.50
2023-05-02T09:37:13.904Z,101133.34
2023-05-02T09:42:31.861Z,101146.00
2023-05-02T09:47:34.808Z,101134.16
2023-05-02T09:52:37.750Z,101133.78
2023-05-02T09:57:43.880Z,101135.72
2023-05-02T10:02:50.686Z,101160.28
2023-05-02T10:07:53.640Z,101163.00
2023-05-02T10:12:56.563Z,101179.19
2023-05-02T10:18:01.658Z,101169.25
2023-05-02T10:23:05.535Z,101183.28
2023-05-02T10:28:08.493Z,101181.34
2023-05-02T10:33:17.041Z,101168.78
2023-05-02T10:38:24.116Z,101188.28
2023-05-02T10:43:31.104Z,101186.31
2023-05-02T10:48:34.756Z,101189.47
2023-05-02T10:53:40.688Z,101195.28
2023-05-02T10:58:45.233Z,101199.38
2023-05-02T11:04:01.205Z,101204.44
2023-05-02T11:09:16.360Z,101206.25
2023-05-02T11:14:34.226Z,101207.81
2023-05-02T11:19:46.084Z,101203.84
2023-05-02T11:24:49.816Z,101218.13
2023-05-02T11:29:56.118Z,101219.81
2023-05-02T11:34:59.342Z,101217.88
2023-05-02T11:40:13.039Z,101220.91
2023-05-02T11:45:16.427Z,101230.94
2023-05-02T11:50:19.256Z,101226.41
2023-05-02T11:55:22.346Z,101236.25
2023-05-02T12:00:28.642Z,101235.28
2023-05-02T12:05:31.933Z,101230.19
2023-05-02T12:10:38.585Z,101231.19
2023-05-02T12:15:41.649Z,101246.84
2023-05-02T12:20:45.448Z,101252.13
2023-05-02T12:25:49.555Z,101267.34
2023-05-02T12:30:52.794Z,101269.81
2023-05-02T12:35:55.547Z,101272.13
2023-05-02T12:40:58.302Z,101281.00
2023-05-02T12:46:11.262Z,101287.84
2023-05-02T12:51:24.470Z,101287.16
2023-05-02T12:56:32.989Z,101292.13
2023-05-02T13:01:36.483Z,101304.59
2023-05-02T13:06:39.545Z,101301.47
2023-05-02T13:11:49.859Z,101304.25
2023-05-02T13:16:53.958Z,101306.88
2023-05-02T13:21:56.813Z,101309.91
2023-05-02T13:26:59.628Z,101324.75
2023-05-02T13:32:02.502Z,101320.78
2023-05-02T13:37:05.715Z,101321.13
2023-05-02T13:42:08.694Z,101338.94
2023-05-02T13:47:11.538Z,101349.75
2023-05-02T13:52:14.460Z,101336.44
2023-05-02T13:57:17.338Z,101352.56
2023-05-02T14:02:20.288Z,101351.53
2023-05-02T14:07:23.070Z,101359.03
2023-05-02T14:12:26.235Z,101369.81
2023-05-02T14:17:29.048Z,101374.91
2023-05-02T14:22:31.828Z,101370.00
2023-05-02T14:27:34.675Z,101379.34
2023-05-02T14:32:37.912Z,101382.44
2023-05-02T14:37:40.888Z,101377.97
2023-05-02T14:42:43.984Z,101378.94
2023-05-02T14:47:47.577Z,101394.34
2023-05-02T14:52:51.285Z,101400.03
2023-05-02T14:57:55.536Z,101395.91
2023-05-02T15:02:59.171Z,101407.41
2023-05-02T15:08:02.105Z,101403.66
2023-05-02T15:13:05.186Z,101409.69
2023-05-02T15:18:08.318Z,101406.19
2023-05-02T15:23:11.383Z,101419.38
2023-05-02T15:28:14.185Z,101431.44
2023-05-02T15:33:17.175Z,101433.38
2023-05-02T15:38:20.401Z,101438.78
2023-05-02T15:43:24.474Z,101446.34
2023-05-02T15:48:33.803Z,101445.13
2023-05-02T15:53:40.001Z,101432.41
2023-05-02T15:58:43.158Z,101450.72
2023-05-02T16:03:45.931Z,101453.69
2023-05-02T16:08:48.789Z,101453.78
2023-05-02T16:13:52.743Z,101456.94
2023-05-02T16:18:55.624Z,101450.38
2023-05-02T16:23:58.767Z,101462.81
2023-05-02T16:29:01.779Z,101465.16
2023-05-02T16:34:04.736Z,101456.94
2023-05-02T16:39:07.749Z,101469.44
2023-05-02T16:44:10.924Z,101475.78
2023-05-02T16:49:14.158Z,101476.09
2023-05-02T16:54:16.953Z,101477.38
2023-05-02T16:59:19.877Z,101480.91
2023-05-02T17:04:22.930Z,101483.72
2023-05-02T17:09:26.520Z,101481.28
2023-05-02T17:14:29.277Z,101488.31
2023-05-02T17:19:32.328Z,101495.13
2023-05-02T17:24:36.035Z,101488.72
2023-05-02T17:29:38.954Z,101496.88
2023-05-02T17:34:43.578Z,101498.81
2023-05-02T17:39:47.163Z,101503.91
2023-05-02T17:44:50.170Z,101504.19
2023-05-02T17:49:54.172Z,101502.69
2023-05-02T17:54:57.061Z,101502.34
2023-05-02T18:00:00.480Z,101508.06
2023-05-02T18:05:04.350Z,101514.63
2023-05-02T18:10:07.918Z,101510.81
2023-05-02T18:15:10.901Z,101506.44
2023-05-02T18:20:14.682Z,101506.03
2023-05-02T18:25:18.085Z,101509.34
2023-05-02T18:30:20.989Z,101512.84
2023-05-02T18:35:23.973Z,101518.03
2023-05-02T18:40:26.853Z,101515.78
2023-05-02T18:45:29.832Z,101525.78
2023-05-02T18:50:32.875Z,101508.50
2023-05-02T18:55:35.803Z,101523.72
2023-05-02T19:00:38.822Z,101517.97
2023-05-02T19:05:42.563Z,101527.50
2023-05-02T19:10:45.475Z,101532.81
2023-05-02T19:15:48.276Z,101534.94
2023-05-02T19:20:51.235Z,101540.22
2023-05-02T19:25:54.311Z,101548.25
2023-05-02T19:30:57.441Z,101546.88
2023-05-02T19:36:00.284Z,101537.16
2023-05-02T19:41:03.609Z,101544.94
2023-05-02T19:46:06.694Z,101547.88
2023-05-02T19:51:09.897Z,101539.31
2023-05-02T19:56:12.647Z,101532.50
2023-05-02T20:01:15.515Z,101543.69
2023-05-02T20:06:18.339Z,101544.00
2023-05-02T20:11:21.866Z,101547.50
2023-05-02T20:16:24.918Z,101554.13
2023-05-02T20:21:27.631Z,101544.78
2023-05-02T20:26:31.739Z,101548.19
2023-05-02T20:31:34.700Z,101543.22
2023-05-02T20:36:37.586Z,101548.47
2023-05-02T20:41:40.494Z,101545.19
2023-05-02T20:46:43.797Z,101557.06
2023-05-02T20:51:46.626Z,101554.44
2023-05-02T20:56:49.609Z,101558.84
2023-05-02T21:01:52.446Z,101572.25
2023-05-02T21:06:57.134Z,101569.72
2023-05-02T21:12:00.045Z,101568.34
2023-05-02T21:17:03.244Z,101579.16
2023-05-02T21:22:06.689Z,101581.59
2023-05-02T21:27:09.508Z,101580.50
2023-05-02T21:32:12.623Z,101578.53
2023-05-02T21:37:15.443Z,101579.78
2023-05-02T21:42:18.419Z,101582.69
2023-05-02T21:47:22.032Z,101599.63
2023-05-02T21:52:24.888Z,101596.69
2023-05-02T21:57:27.680Z,101601.75
2023-05-02T22:02:30.916Z,101593.16
2023-05-02T22:07:34.229Z,101591.19
2023-05-02T22:12:37.084Z,101597.91
2023-05-02T22:17:43.621Z,101598.59
2023-05-02T22:22:46.410Z,101592.44
2023-05-02T22:27:49.230Z,101600.59
2023-05-02T22:32:52.058Z,101606.44
2023-05-02T22:37:55.103Z,101609.75
2023-05-02T22:42:58.809Z,101608.09
2023-05-02T22:48:01.649Z,101617.53
2023-05-02T22:53:04.706Z,101616.09
2023-05-02T22:58:07.636Z,101612.59
2023-05-02T23:03:11.879Z,101622.34
2023-05-02T23:08:14.967Z,101622.34
2023-05-02T23:13:17.753Z,101622.53
2023-05-02T23:18:21.597Z,101621.97
2023-05-02T23:23:24.654Z,101641.78
2023-05-02T23:28:27.442Z,101642.88
2023-05-02T23:33:31.158Z,101654.31
2023-05-02T23:38:35.487Z,101655.03
2023-05-02T23:43:38.253Z,101658.94
2023-05-02T23:48:43.703Z,101670.94
2023-05-02T23:53:46.849Z,101677.38
2023-05-02T23:58:49.947Z,101677.34
